Swea City, Iowa
Current Conditions -  °F | °C
As of 9:15 PM on Sunday 23 Nov 2014 (Local Time) from KFRM Reporting Station
Overcast Overcast  
Wind Chill: 22°   Ceiling: 2300
Heat Index: 34°   Visibility: 10mi
Dew Point: 25°   Wind: 22mph
Humidity: 70%   Direction: 310°NW
Pressure: 29.42"   Gusts: 31mph
Location:  43.38°N, 94.31°W
Report Text: KFRM 240315Z AUTO 31019G27KT 10SM BKN023 OVC100 01/M04 A2942 RMK AO1
Loading
Personal Weather Stations






























Interactive Weather Map New forecast layout! Learn more

10-Day Weather Forecast

Advertisements
Track Severe Weather on mobile